Lavista, Nebraska
Current Conditions -  °F | °C
As of 10:15 PM on Tuesday 27 Jan 2015 (Local Time) from KMLE Reporting Station
Clear Clear  
Wind Chill:   Ceiling: Unl
Heat Index:   Visibility: 10mi
Dew Point: -1°   Wind: 6mph
Humidity: 70%   Direction: 140°SE
Pressure: 30.01"   Gusts: NA
Location:  41.166°N, 96.0444°W
Report Text: KMLE 280415Z AUTO 14005KT 10SM CLR 04/M01 A3001 RMK AO2 T00411009
Loading
Personal Weather Stations






























Interactive Weather Map New forecast layout! Learn more

10-Day Weather Forecast

Advertisements
Track Severe Weather on mobile